createdAt,value
2022-08-03T00:14:44.011Z,3.21
2022-08-03T00:30:00.177Z,3.59
2022-08-03T00:44:27.476Z,3.50
2022-08-03T00:59:19.292Z,2.81
2022-08-03T01:14:18.874Z,3.37
2022-08-03T01:29:30.504Z,3.44
2022-08-03T01:44:30.758Z,3.01
2022-08-03T01:59:18.650Z,3.09
2022-08-03T02:14:09.976Z,3.14
2022-08-03T02:29:01.490Z,3.71
2022-08-03T02:44:06.414Z,4.62
2022-08-03T02:58:44.132Z,5.49
2022-08-03T03:13:33.925Z,5.15
2022-08-03T03:28:25.482Z,4.06
2022-08-03T03:43:16.361Z,3.71
2022-08-03T03:58:08.279Z,3.49
2022-08-03T04:13:00.201Z,3.49
2022-08-03T04:28:08.155Z,4.09
2022-08-03T04:42:43.374Z,3.95
2022-08-03T04:57:34.163Z,3.41
2022-08-03T05:12:32.055Z,3.54
2022-08-03T05:27:19.532Z,3.76
2022-08-03T05:42:11.763Z,3.44
2022-08-03T05:57:03.531Z,3.40
2022-08-03T06:11:55.587Z,3.00
2022-08-03T06:26:48.405Z,2.99
2022-08-03T06:41:44.734Z,2.83
2022-08-03T06:56:33.164Z,2.76
2022-08-03T07:11:27.337Z,3.20
2022-08-03T07:26:20.993Z,3.10
2022-08-03T07:41:13.453Z,3.00
2022-08-03T07:56:06.463Z,2.39
2022-08-03T08:10:59.051Z,2.69
2022-08-03T08:25:51.867Z,2.82
2022-08-03T08:40:44.246Z,3.07
2022-08-03T08:55:58.447Z,2.79
2022-08-03T09:10:30.339Z,3.24
2022-08-03T09:25:26.517Z,3.66
2022-08-03T09:40:39.297Z,3.89
2022-08-03T09:56:34.126Z,3.58
2022-08-03T10:10:32.349Z,3.29
2022-08-03T10:25:23.406Z,3.20
2022-08-03T10:40:33.300Z,2.76
2022-08-03T10:55:52.561Z,2.64
2022-08-03T11:10:52.121Z,2.51
2022-08-03T11:26:13.002Z,2.64
2022-08-03T11:41:12.694Z,2.64
2022-08-03T11:56:05.655Z,2.57
2022-08-03T12:11:00.022Z,2.68
2022-08-03T12:25:53.675Z,2.50
2022-08-03T12:40:46.951Z,2.67
2022-08-03T12:55:56.592Z,2.76
2022-08-03T13:10:32.387Z,2.73
2022-08-03T13:25:25.908Z,2.46
2022-08-03T13:40:19.082Z,2.37
2022-08-03T13:55:12.460Z,2.93
2022-08-03T14:10:05.489Z,2.50
2022-08-03T14:24:59.051Z,2.49
2022-08-03T14:40:01.120Z,2.59
2022-08-03T14:54:49.426Z,2.50
2022-08-03T15:09:43.500Z,2.70
2022-08-03T15:24:36.366Z,2.54
2022-08-03T15:39:30.192Z,2.27
2022-08-03T15:54:24.494Z,2.34
2022-08-03T16:09:23.948Z,2.17
2022-08-03T16:24:09.657Z,2.42
2022-08-03T16:38:58.987Z,2.59
2022-08-03T16:54:05.617Z,3.32
2022-08-03T17:08:41.762Z,2.84
2022-08-03T17:23:37.018Z,2.67
2022-08-03T17:38:34.738Z,2.43
2022-08-03T17:53:24.703Z,2.58
2022-08-03T18:08:18.801Z,4.24
2022-08-03T18:23:24.818Z,2.48
2022-08-03T18:38:05.437Z,2.62
2022-08-03T18:53:19.389Z,2.88
2022-08-03T19:08:15.994Z,2.87
2022-08-03T19:23:11.174Z,3.30
2022-08-03T19:38:03.020Z,3.72
2022-08-03T19:52:55.133Z,3.48
2022-08-03T20:07:48.332Z,4.88
2022-08-03T20:22:39.079Z,4.57
2022-08-03T20:37:30.480Z,6.14
2022-08-03T20:52:21.966Z,4.13
2022-08-03T21:07:17.008Z,4.63
2022-08-03T21:22:07.766Z,5.89
2022-08-03T21:36:59.920Z,4.43
2022-08-03T21:51:52.463Z,3.00
2022-08-03T22:06:44.701Z,2.90
2022-08-03T22:21:37.057Z,2.67
2022-08-03T22:36:27.904Z,2.52
2022-08-03T22:51:21.446Z,2.90
2022-08-03T23:06:12.915Z,2.79
2022-08-03T23:21:11.095Z,2.57
2022-08-03T23:36:18.755Z,4.13
2022-08-03T23:50:57.460Z,2.86
